Time;durP1;ratioP1;P1;durP2;ratioP2;P2;SDS_P1;SDS_P2;PMS_P1;PMS_P2;Temp;Humidity;BMP_temperature;BMP_pressure;BME280_temperature;BME280_humidity;BME280_pressure;Samples;Min_cycle;Max_cycle;Signal;HPM_P1;HPM_P2
2021/07/07 00:00:14;;;;;;;15.23;3.05;;;13.60;99.90;;;;;;2082260;28;20018;-66
2021/07/07 00:01:15;;;;;;;14.75;3.17;;;13.60;99.90;;;;;;2082195;28;20596;-66
2021/07/07 00:02:16;;;;;;;12.13;3.22;;;13.50;99.90;;;;;;2087482;28;20037;-66
2021/07/07 00:03:16;;;;;;;12.20;2.60;;;13.50;99.90;;;;;;2083484;28;20073;-67
2021/07/07 00:04:17;;;;;;;12.05;3.13;;;13.50;99.90;;;;;;2086997;28;20477;-67
2021/07/07 00:05:20;;;;;;;13.93;2.38;;;13.40;99.90;;;;;;2084937;28;20026;-66
2021/07/07 00:06:20;;;;;;;12.63;2.78;;;13.40;99.90;;;;;;2086560;28;20022;-67
2021/07/07 00:07:21;;;;;;;17.80;2.88;;;13.40;99.90;;;;;;2078562;28;20470;-66
2021/07/07 00:08:22;;;;;;;18.60;3.13;;;13.50;99.90;;;;;;2086407;28;20063;-66
2021/07/07 00:09:22;;;;;;;13.02;2.90;;;13.50;99.90;;;;;;2079274;28;20049;-66
2021/07/07 00:10:23;;;;;;;13.15;2.63;;;13.60;99.90;;;;;;2082177;28;20018;-66
2021/07/07 00:11:24;;;;;;;13.00;2.70;;;13.60;99.90;;;;;;2082406;28;20466;-66
2021/07/07 00:12:25;;;;;;;13.32;3.00;;;13.60;99.90;;;;;;2080454;28;20014;-68
2021/07/07 00:13:26;;;;;;;13.02;2.75;;;13.70;99.90;;;;;;2081491;28;20028;-66
2021/07/07 00:14:27;;;;;;;12.18;3.05;;;13.80;99.90;;;;;;2082001;28;20041;-67
2021/07/07 00:15:31;;;;;;;13.90;2.78;;;13.80;99.90;;;;;;2076709;28;20406;-67
2021/07/07 00:16:32;;;;;;;11.00;2.88;;;13.90;99.90;;;;;;2075858;28;20052;-67
2021/07/07 00:17:33;;;;;;;18.88;3.75;;;13.90;99.90;;;;;;2075914;28;20037;-67
2021/07/07 00:18:34;;;;;;;15.02;2.97;;;14.00;99.90;;;;;;2079035;28;20025;-66
2021/07/07 00:19:34;;;;;;;10.60;2.85;;;14.00;99.90;;;;;;2078825;28;20088;-66
2021/07/07 00:20:39;;;;;;;25.25;3.55;;;14.00;99.90;;;;;;2076428;28;20029;-67
2021/07/07 00:21:40;;;;;;;13.93;3.08;;;14.00;99.90;;;;;;2081219;28;20116;-66
2021/07/07 00:22:41;;;;;;;14.98;2.72;;;14.10;99.90;;;;;;2075016;28;20026;-66
2021/07/07 00:23:42;;;;;;;11.98;2.85;;;14.10;99.90;;;;;;2076291;28;20072;-66
2021/07/07 00:24:43;;;;;;;15.02;2.70;;;14.10;99.90;;;;;;2077945;28;20056;-66
2021/07/07 00:25:44;;;;;;;17.70;3.45;;;14.20;99.90;;;;;;2077038;28;20030;-66
2021/07/07 00:26:45;;;;;;;17.90;3.80;;;14.20;99.90;;;;;;2088660;28;20033;-67
2021/07/07 00:27:45;;;;;;;16.30;3.33;;;14.20;99.90;;;;;;2079903;28;20079;-67
2021/07/07 00:28:46;;;;;;;17.55;3.40;;;14.20;99.90;;;;;;2077352;28;20018;-66
2021/07/07 00:29:48;;;;;;;13.55;2.58;;;14.20;99.90;;;;;;2082786;28;20546;-66
2021/07/07 00:30:50;;;;;;;13.65;2.65;;;14.20;99.90;;;;;;2082715;28;20017;-69
2021/07/07 00:31:51;;;;;;;12.38;2.50;;;14.20;99.90;;;;;;2082915;28;20030;-67
2021/07/07 00:32:52;;;;;;;15.02;3.50;;;14.30;99.90;;;;;;2082464;28;20443;-69
2021/07/07 00:33:52;;;;;;;18.25;3.17;;;14.30;99.90;;;;;;2082587;28;20036;-66
2021/07/07 00:34:53;;;;;;;16.92;3.00;;;14.40;99.90;;;;;;2082276;28;20033;-68
2021/07/07 00:35:54;;;;;;;19.13;3.67;;;14.40;99.90;;;;;;2082048;28;20037;-67
2021/07/07 00:36:54;;;;;;;11.18;2.70;;;14.40;99.90;;;;;;2082223;28;20021;-71
2021/07/07 00:37:56;;;;;;;17.35;3.20;;;14.30;99.90;;;;;;2077185;28;20029;-68
2021/07/07 00:38:56;;;;;;;15.27;3.10;;;14.40;99.90;;;;;;2081567;28;20516;-68
2021/07/07 00:39:57;;;;;;;20.98;3.67;;;14.40;99.90;;;;;;2086989;28;20263;-67
2021/07/07 00:40:58;;;;;;;15.85;3.38;;;14.30;99.90;;;;;;2083354;28;20030;-66
2021/07/07 00:41:59;;;;;;;14.88;2.85;;;14.30;99.90;;;;;;2081265;28;20355;-66
2021/07/07 00:42:59;;;;;;;16.20;3.35;;;14.30;99.90;;;;;;2097124;28;20027;-66
2021/07/07 00:44:00;;;;;;;12.63;3.00;;;14.30;99.90;;;;;;2097031;28;21859;-66
2021/07/07 00:45:01;;;;;;;14.90;3.38;;;14.30;99.90;;;;;;2081600;28;20547;-67
2021/07/07 00:46:03;;;;;;;8.90;2.92;;;14.30;99.90;;;;;;2078812;28;20544;-66
2021/07/07 00:47:04;;;;;;;15.07;3.25;;;14.30;99.90;;;;;;2079972;28;20029;-67
2021/07/07 00:48:04;;;;;;;10.65;2.85;;;14.20;99.90;;;;;;2081002;28;20030;-66
2021/07/07 00:49:05;;;;;;;12.32;2.97;;;14.20;99.90;;;;;;2081783;28;20022;-67
2021/07/07 00:50:07;;;;;;;11.27;2.72;;;14.20;99.90;;;;;;2081274;28;20013;-66
2021/07/07 00:51:08;;;;;;;;;;;14.20;99.90;;;;;;2081593;28;20021;-66
2021/07/07 00:52:10;;;;;;;18.08;2.90;;;14.20;99.90;;;;;;2081590;28;20380;-66
2021/07/07 00:53:11;;;;;;;12.00;3.00;;;14.20;99.90;;;;;;2078433;28;20049;-67
2021/07/07 00:54:14;;;;;;;17.75;4.10;;;14.30;99.90;;;;;;2081119;28;20079;-66
2021/07/07 00:55:16;;;;;;;19.17;3.78;;;14.30;99.90;;;;;;2096895;28;20024;-66
2021/07/07 00:56:18;;;;;;;23.48;3.97;;;14.30;99.90;;;;;;2096738;28;20025;-66
2021/07/07 00:57:19;;;;;;;13.05;3.42;;;14.30;99.90;;;;;;2097073;28;20032;-66
2021/07/07 00:58:22;;;;;;;23.98;4.95;;;14.30;99.90;;;;;;2097463;28;20082;-66
2021/07/07 00:59:23;;;;;;;13.65;3.40;;;14.30;99.90;;;;;;2081838;28;20434;-66
2021/07/07 01:00:25;;;;;;;17.65;3.92;;;14.30;99.90;;;;;;2076556;28;20046;-66
2021/07/07 01:01:26;;;;;;;;;;;14.30;99.90;;;;;;2080636;28;20017;-66
2021/07/07 01:02:27;;;;;;;17.98;3.33;;;14.20;99.90;;;;;;2081172;28;19905;-66
2021/07/07 01:03:28;;;;;;;15.70;3.40;;;14.20;99.90;;;;;;2081402;28;20029;-66
2021/07/07 01:04:29;;;;;;;17.90;3.38;;;14.20;99.90;;;;;;2081303;28;20040;-67
2021/07/07 01:05:30;;;;;;;19.23;4.70;;;14.20;99.90;;;;;;2081524;28;20045;-67
2021/07/07 01:06:31;;;;;;;19.90;5.10;;;14.20;99.90;;;;;;2081401;28;20030;-66
2021/07/07 01:07:32;;;;;;;18.40;3.22;;;14.10;99.90;;;;;;2080621;28;20176;-66
2021/07/07 01:08:32;;;;;;;13.40;3.17;;;14.10;99.90;;;;;;2080852;28;20026;-67
2021/07/07 01:09:35;;;;;;;11.13;3.10;;;14.10;99.90;;;;;;2078746;28;20025;-66
2021/07/07 01:10:37;;;;;;;12.52;3.10;;;14.00;99.90;;;;;;2080737;28;20647;-66
2021/07/07 01:11:37;;;;;;;15.05;3.13;;;14.00;99.90;;;;;;2080486;28;20468;-67
2021/07/07 01:12:38;;;;;;;23.02;3.70;;;14.00;99.90;;;;;;2081221;28;20034;-67
2021/07/07 01:13:40;;;;;;;12.43;3.38;;;14.00;99.90;;;;;;2079292;28;20545;-67
2021/07/07 01:14:40;;;;;;;19.00;3.30;;;13.90;99.90;;;;;;2079020;28;20028;-67
2021/07/07 01:15:43;;;;;;;15.70;3.35;;;13.90;99.90;;;;;;2081030;28;20117;-67
2021/07/07 01:16:43;;;;;;;;;;;13.90;99.90;;;;;;2081347;28;20641;-66
2021/07/07 01:17:45;;;;;;;19.33;4.00;;;13.90;99.90;;;;;;2080815;28;19909;-66
2021/07/07 01:18:46;;;;;;;11.40;3.30;;;13.90;99.90;;;;;;2080955;28;20014;-67
2021/07/07 01:19:47;;;;;;;19.90;3.83;;;13.90;99.90;;;;;;2080991;28;20428;-66
2021/07/07 01:20:48;;;;;;;17.50;3.40;;;13.90;99.90;;;;;;2081151;28;20025;-66
2021/07/07 01:21:50;;;;;;;11.05;3.53;;;13.90;99.90;;;;;;2081015;28;20053;-66
2021/07/07 01:22:51;;;;;;;19.73;3.92;;;13.90;99.90;;;;;;2081305;28;20430;-67
2021/07/07 01:23:52;;;;;;;14.07;3.70;;;14.00;99.90;;;;;;2077546;28;20030;-66
2021/07/07 01:24:53;;;;;;;13.88;3.28;;;14.00;99.90;;;;;;2080432;28;20032;-66
2021/07/07 01:25:54;;;;;;;19.85;3.70;;;14.00;99.90;;;;;;2097466;28;20035;-67
2021/07/07 01:26:54;;;;;;;15.68;2.80;;;14.00;99.90;;;;;;2094779;28;20421;-66
2021/07/07 01:28:02;;;;;;;12.50;3.05;;;14.00;99.90;;;;;;2073141;28;20445;-67
2021/07/07 01:29:02;;;;;;;21.63;3.58;;;14.10;99.90;;;;;;2079649;28;20052;-68
2021/07/07 01:30:09;;;;;;;17.17;2.97;;;14.10;99.90;;;;;;2081029;28;20402;-66
2021/07/07 01:31:09;;;;;;;15.07;3.35;;;14.10;99.90;;;;;;2073061;28;20026;-67
2021/07/07 01:32:11;;;;;;;9.65;2.90;;;14.10;99.90;;;;;;2076261;28;20028;-67
2021/07/07 01:33:12;;;;;;;14.57;3.83;;;14.10;99.90;;;;;;2081323;28;20057;-67
2021/07/07 01:34:13;;;;;;;13.65;3.08;;;14.10;99.90;;;;;;2080899;28;20033;-67
2021/07/07 01:35:14;;;;;;;20.02;2.78;;;14.10;99.90;;;;;;2096911;28;20032;-66
2021/07/07 01:36:15;;;;;;;16.77;3.55;;;14.20;99.90;;;;;;2096973;28;20500;-67
2021/07/07 01:37:17;;;;;;;18.65;3.38;;;14.20;99.90;;;;;;2077560;28;20034;-66
2021/07/07 01:38:17;;;;;;;14.07;2.65;;;14.20;99.90;;;;;;2080140;28;20032;-67
2021/07/07 01:39:18;;;;;;;19.25;4.00;;;14.20;99.90;;;;;;2078488;28;20057;-67
2021/07/07 01:40:21;;;;;;;17.23;3.40;;;14.20;99.90;;;;;;2080917;28;20045;-67
2021/07/07 01:41:24;;;;;;;13.02;2.80;;;14.20;99.90;;;;;;2080181;28;20493;-66
2021/07/07 01:42:25;;;;;;;22.83;3.38;;;14.20;99.90;;;;;;2080235;28;20021;-66
2021/07/07 01:43:26;;;;;;;17.73;4.45;;;14.20;99.90;;;;;;2081189;28;20025;-66
2021/07/07 01:44:27;;;;;;;16.35;4.00;;;14.20;99.90;;;;;;2088398;28;20020;-66
2021/07/07 01:45:28;;;;;;;16.63;3.55;;;14.20;99.90;;;;;;2088088;28;20031;-66
2021/07/07 01:46:29;;;;;;;13.50;3.00;;;14.10;99.90;;;;;;2078392;28;20037;-66
2021/07/07 01:47:30;;;;;;;14.27;3.47;;;14.10;99.90;;;;;;2081058;28;20044;-67
2021/07/07 01:48:30;;;;;;;21.85;3.95;;;14.10;99.90;;;;;;2081503;28;20162;-68
2021/07/07 01:49:31;;;;;;;16.30;4.13;;;14.10;99.90;;;;;;2082397;28;20033;-67
2021/07/07 01:50:32;;;;;;;10.63;3.13;;;14.00;99.90;;;;;;2080906;28;20501;-67
2021/07/07 01:51:35;;;;;;;18.45;3.65;;;14.00;99.90;;;;;;2081091;28;20029;-67
2021/07/07 01:52:36;;;;;;;10.65;3.50;;;14.00;99.90;;;;;;2080213;28;20456;-67
2021/07/07 01:53:36;;;;;;;18.60;3.67;;;14.00;99.90;;;;;;2071973;28;20076;-67
2021/07/07 01:54:37;;;;;;;21.30;3.38;;;14.10;99.90;;;;;;2080583;28;20072;-67
2021/07/07 01:55:38;;;;;;;18.20;3.58;;;14.10;99.90;;;;;;2080680;28;20026;-67
2021/07/07 01:56:39;;;;;;;18.85;3.72;;;14.10;99.90;;;;;;2080374;28;20028;-67
2021/07/07 01:57:49;;;;;;;18.73;4.40;;;14.10;99.90;;;;;;2080503;28;20029;-66
2021/07/07 01:58:50;;;;;;;17.05;4.35;;;14.00;99.90;;;;;;2081046;28;20018;-67
2021/07/07 01:59:50;;;;;;;14.38;3.63;;;14.00;99.90;;;;;;2080049;28;20735;-67
2021/07/07 02:00:51;;;;;;;17.75;3.78;;;14.00;99.90;;;;;;2080291;28;20651;-70
2021/07/07 02:01:52;;;;;;;17.63;4.10;;;14.00;99.90;;;;;;2077146;28;20124;-67
2021/07/07 02:02:55;;;;;;;16.58;4.05;;;14.00;99.90;;;;;;2079991;28;20018;-67
2021/07/07 02:03:55;;;;;;;22.27;4.55;;;13.90;99.90;;;;;;2083665;28;20064;-67
2021/07/07 02:04:56;;;;;;;13.93;3.97;;;13.90;99.90;;;;;;2082009;28;20388;-68
2021/07/07 02:05:57;;;;;;;14.60;4.68;;;13.90;99.90;;;;;;2077784;28;20028;-67
2021/07/07 02:06:57;;;;;;;17.38;4.82;;;13.90;99.90;;;;;;2080253;28;20064;-66
2021/07/07 02:08:08;;;;;;;21.38;4.80;;;13.80;99.90;;;;;;2080234;28;20452;-66
2021/07/07 02:09:09;;;;;;;19.80;4.22;;;13.80;99.90;;;;;;2081050;28;20014;-67
2021/07/07 02:10:12;;;;;;;20.48;4.57;;;13.70;99.90;;;;;;2080961;28;20013;-66
2021/07/07 02:11:13;;;;;;;22.30;4.30;;;13.70;99.90;;;;;;2080927;28;20036;-66
2021/07/07 02:12:14;;;;;;;17.00;4.50;;;13.60;99.90;;;;;;2078847;28;20029;-66
2021/07/07 02:13:15;;;;;;;14.48;3.92;;;13.60;99.90;;;;;;2080333;28;20488;-67
2021/07/07 02:14:16;;;;;;;14.90;4.38;;;13.50;99.90;;;;;;2082387;28;20026;-67
2021/07/07 02:15:22;;;;;;;28.45;4.78;;;13.50;99.90;;;;;;2072910;28;20037;-67
2021/07/07 02:16:23;;;;;;;23.33;4.32;;;13.50;99.90;;;;;;2076146;28;20432;-67
2021/07/07 02:17:24;;;;;;;17.23;5.03;;;13.50;99.90;;;;;;2080374;28;20032;-67
2021/07/07 02:18:25;;;;;;;22.27;5.15;;;13.50;99.90;;;;;;2080243;28;20056;-69
2021/07/07 02:19:25;;;;;;;16.92;4.50;;;13.50;99.90;;;;;;2078240;28;20037;-67
2021/07/07 02:20:29;;;;;;;21.95;5.25;;;13.40;99.90;;;;;;2080743;28;20672;-67
2021/07/07 02:21:29;;;;;;;22.75;4.63;;;13.30;99.90;;;;;;2081026;28;20022;-68
2021/07/07 02:22:30;;;;;;;18.90;4.82;;;13.30;99.90;;;;;;2080382;28;20026;-67
2021/07/07 02:23:31;;;;;;;12.88;4.20;;;13.30;99.90;;;;;;2080199;28;20104;-67
2021/07/07 02:24:31;;;;;;;21.45;4.75;;;13.30;99.90;;;;;;2080435;28;20029;-67
2021/07/07 02:25:36;;;;;;;18.55;4.97;;;13.20;99.90;;;;;;2075184;28;20022;-67
2021/07/07 02:26:37;;;;;;;13.93;4.93;;;13.20;99.90;;;;;;2076741;28;20167;-67
2021/07/07 02:27:38;;;;;;;17.77;4.20;;;13.10;99.90;;;;;;2079310;28;20418;-67
2021/07/07 02:28:39;;;;;;;18.30;5.33;;;13.10;99.90;;;;;;2079750;28;20124;-67
2021/07/07 02:29:40;;;;;;;19.58;4.50;;;13.10;99.90;;;;;;2080077;28;20259;-67
2021/07/07 02:30:42;;;;;;;22.25;5.05;;;13.10;99.90;;;;;;2080441;28;20028;-67
2021/07/07 02:31:42;;;;;;;19.30;4.72;;;13.10;99.90;;;;;;2080081;28;20030;-67
2021/07/07 02:32:44;;;;;;;17.50;4.25;;;13.20;99.90;;;;;;2079650;28;20057;-67
2021/07/07 02:33:45;;;;;;;16.23;4.20;;;13.20;99.90;;;;;;2080773;28;20040;-67
2021/07/07 02:34:46;;;;;;;19.02;5.38;;;13.20;99.90;;;;;;2079205;28;20112;-67
2021/07/07 02:35:46;;;;;;;21.63;4.68;;;13.10;99.90;;;;;;2079103;28;20029;-67
2021/07/07 02:36:47;;;;;;;21.33;4.80;;;13.10;99.90;;;;;;2072172;28;20112;-67
2021/07/07 02:37:50;;;;;;;20.45;4.72;;;13.10;99.90;;;;;;2081270;28;20603;-67
2021/07/07 02:38:50;;;;;;;17.30;4.60;;;13.10;99.90;;;;;;2080865;28;20070;-67
2021/07/07 02:39:51;;;;;;;18.67;5.10;;;13.00;99.90;;;;;;2080855;28;20107;-67
2021/07/07 02:40:54;;;;;;;14.95;4.70;;;13.00;99.90;;;;;;2080572;28;20548;-67
2021/07/07 02:41:55;;;;;;;17.88;4.50;;;13.00;99.90;;;;;;2080671;28;20493;-67
2021/07/07 02:42:56;;;;;;;20.13;4.82;;;12.90;99.90;;;;;;2080577;28;20014;-67
2021/07/07 02:43:56;;;;;;;13.10;4.10;;;12.90;99.90;;;;;;2077392;28;20025;-67
2021/07/07 02:44:58;;;;;;;18.85;4.45;;;12.90;99.90;;;;;;2076295;28;20104;-67
2021/07/07 02:45:59;;;;;;;18.48;4.97;;;12.90;99.90;;;;;;2081273;28;20082;-67
2021/07/07 02:46:59;;;;;;;15.35;4.70;;;12.80;99.90;;;;;;2088192;28;20025;-67
2021/07/07 02:48:02;;;;;;;21.98;5.07;;;12.80;99.90;;;;;;2080373;28;20026;-67
2021/07/07 02:49:03;;;;;;;16.52;4.20;;;12.80;99.90;;;;;;2080538;28;20478;-67
2021/07/07 02:50:05;;;;;;;19.25;5.22;;;12.80;99.90;;;;;;2080026;28;20079;-67
2021/07/07 02:51:06;;;;;;;16.30;4.57;;;12.80;99.90;;;;;;2079315;28;20033;-67
2021/07/07 02:52:06;;;;;;;24.55;5.65;;;12.90;99.90;;;;;;2084062;28;20117;-66
2021/07/07 02:53:08;;;;;;;16.25;4.60;;;12.90;99.90;;;;;;2080914;28;20493;-67
2021/07/07 02:54:09;;;;;;;;;;;12.80;99.90;;;;;;2081006;28;20105;-67
2021/07/07 02:55:15;;;;;;;18.60;4.97;;;12.80;99.90;;;;;;2080782;28;19912;-67
2021/07/07 02:56:16;;;;;;;26.30;4.82;;;12.80;99.90;;;;;;2080561;28;20048;-67
2021/07/07 02:57:17;;;;;;;17.27;4.32;;;12.80;99.90;;;;;;2079871;28;20022;-67
2021/07/07 02:58:18;;;;;;;15.88;4.72;;;12.70;99.90;;;;;;2071967;28;20438;-67
2021/07/07 02:59:18;;;;;;;19.52;5.32;;;12.70;99.90;;;;;;2071672;28;20119;-67
2021/07/07 03:00:20;;;;;;;17.35;5.57;;;12.70;99.90;;;;;;2079885;28;20502;-67
2021/07/07 03:01:21;;;;;;;15.75;4.32;;;12.70;99.90;;;;;;2079538;28;20702;-66
2021/07/07 03:02:21;;;;;;;18.33;4.57;;;12.80;99.90;;;;;;2080033;28;20037;-67
2021/07/07 03:03:24;;;;;;;20.30;4.82;;;12.80;99.90;;;;;;2080504;28;20032;-67
2021/07/07 03:04:25;;;;;;;19.23;5.18;;;12.70;99.90;;;;;;2080532;28;20025;-67
2021/07/07 03:05:27;;;;;;;20.65;4.53;;;12.80;99.90;;;;;;2080635;28;20028;-68
2021/07/07 03:06:28;;;;;;;22.25;5.22;;;12.70;99.90;;;;;;2076575;28;20441;-66
2021/07/07 03:07:29;;;;;;;20.65;4.85;;;12.70;99.90;;;;;;2080281;28;20067;-67
2021/07/07 03:08:32;;;;;;;19.92;4.72;;;12.70;99.90;;;;;;2074495;28;20152;-67
2021/07/07 03:09:33;;;;;;;24.00;4.90;;;12.70;99.90;;;;;;2080535;28;20611;-69
2021/07/07 03:10:34;;;;;;;14.43;4.70;;;12.70;99.90;;;;;;2079901;28;20049;-67
2021/07/07 03:11:35;;;;;;;17.40;5.47;;;12.70;99.90;;;;;;2079816;28;20037;-67
2021/07/07 03:12:36;;;;;;;26.13;5.78;;;12.70;99.90;;;;;;2074739;28;20018;-67
2021/07/07 03:13:36;;;;;;;15.32;4.72;;;12.70;99.90;;;;;;2076108;28;20021;-67
2021/07/07 03:14:37;;;;;;;16.90;4.90;;;12.80;99.90;;;;;;2080314;28;20033;-67
2021/07/07 03:15:38;;;;;;;24.08;5.47;;;12.70;99.90;;;;;;2080028;28;20026;-67
2021/07/07 03:16:39;;;;;;;20.52;5.45;;;12.80;99.90;;;;;;2079738;28;20022;-67
2021/07/07 03:17:40;;;;;;;21.40;5.30;;;12.70;99.90;;;;;;2079889;28;20030;-67
2021/07/07 03:18:41;;;;;;;28.23;5.57;;;12.70;99.90;;;;;;2080469;28;20497;-67
2021/07/07 03:19:41;;;;;;;22.30;5.75;;;12.70;99.90;;;;;;2080539;28;20113;-67
2021/07/07 03:20:44;;;;;;;16.63;5.00;;;12.70;99.90;;;;;;2077586;28;20022;-67
2021/07/07 03:21:45;;;;;;;30.60;5.65;;;12.70;99.90;;;;;;2080025;28;20034;-67
2021/07/07 03:22:46;;;;;;;22.42;5.38;;;12.70;99.90;;;;;;2080342;28;20017;-67
2021/07/07 03:23:47;;;;;;;23.35;5.80;;;12.70;99.90;;;;;;2079802;28;20021;-67
2021/07/07 03:24:48;;;;;;;20.52;5.13;;;12.70;99.90;;;;;;2080262;28;20028;-68
2021/07/07 03:25:51;;;;;;;20.13;4.75;;;12.70;99.90;;;;;;2078310;28;20030;-68
2021/07/07 03:26:51;;;;;;;27.45;5.20;;;12.70;99.90;;;;;;2082071;28;20017;-68
2021/07/07 03:27:52;;;;;;;24.45;5.20;;;12.70;99.90;;;;;;2076818;28;20469;-67
2021/07/07 03:28:53;;;;;;;17.98;5.03;;;12.70;99.90;;;;;;2067453;28;20601;-67
2021/07/07 03:29:53;;;;;;;18.60;5.32;;;12.70;99.90;;;;;;2079780;28;20140;-67
2021/07/07 03:30:54;;;;;;;17.88;4.95;;;12.70;99.90;;;;;;2080144;28;20028;-67
2021/07/07 03:31:55;;;;;;;19.92;5.00;;;12.60;99.90;;;;;;2080425;28;20387;-68
2021/07/07 03:32:57;;;;;;;15.10;4.40;;;12.70;99.90;;;;;;2080416;28;20036;-68
2021/07/07 03:33:57;;;;;;;25.08;5.68;;;12.70;99.90;;;;;;2080359;28;20025;-67
2021/07/07 03:34:58;;;;;;;25.70;6.13;;;12.60;99.90;;;;;;2077322;28;20677;-67
2021/07/07 03:36:00;;;;;;;20.88;5.65;;;12.60;99.90;;;;;;2080038;28;20032;-67
2021/07/07 03:37:00;;;;;;;18.43;4.80;;;12.70;99.90;;;;;;2080273;28;20536;-67
2021/07/07 03:38:02;;;;;;;21.25;6.15;;;12.70;99.90;;;;;;2080481;28;20260;-67
2021/07/07 03:39:03;;;;;;;19.52;4.95;;;12.70;99.90;;;;;;2077309;28;20068;-67
2021/07/07 03:40:05;;;;;;;23.77;5.97;;;12.60;99.90;;;;;;2080314;28;20025;-67
2021/07/07 03:41:06;;;;;;;;;;;12.60;99.90;;;;;;2080568;28;20072;-67
2021/07/07 03:42:06;;;;;;;25.10;5.82;;;12.60;99.90;;;;;;2080242;28;20418;-67
2021/07/07 03:43:07;;;;;;;19.85;5.45;;;12.60;99.90;;;;;;2077659;28;20491;-67
2021/07/07 03:44:08;;;;;;;14.97;4.83;;;12.60;99.90;;;;;;2082552;28;20076;-67
2021/07/07 03:45:18;;;;;;;21.95;5.55;;;12.60;99.90;;;;;;2080298;28;20390;-67
2021/07/07 03:46:18;;;;;;;19.88;5.65;;;12.60;99.90;;;;;;2080403;28;20020;-67
2021/07/07 03:47:19;;;;;;;21.65;5.63;;;12.50;99.90;;;;;;2079832;28;20493;-68
2021/07/07 03:48:20;;;;;;;16.58;5.13;;;12.50;99.90;;;;;;2079950;28;20022;-67
2021/07/07 03:49:21;;;;;;;20.55;5.65;;;12.50;99.90;;;;;;2081980;28;20028;-67
2021/07/07 03:50:23;;;;;;;21.17;5.70;;;12.50;99.90;;;;;;2082031;28;20017;-67
2021/07/07 03:51:24;;;;;;;21.88;5.63;;;12.40;99.90;;;;;;2074575;28;20014;-67
2021/07/07 03:52:24;;;;;;;21.00;5.65;;;12.50;99.90;;;;;;2075521;28;20022;-67
2021/07/07 03:53:25;;;;;;;21.15;5.85;;;12.50;99.90;;;;;;2077955;28;20707;-67
2021/07/07 03:54:26;;;;;;;18.98;5.40;;;12.40;99.90;;;;;;2081120;28;20035;-67
2021/07/07 03:55:27;;;;;;;17.48;5.53;;;12.40;99.90;;;;;;2082031;28;20389;-67
2021/07/07 03:56:29;;;;;;;23.25;5.82;;;12.50;99.90;;;;;;2081078;28;20025;-67
2021/07/07 03:57:30;;;;;;;17.70;5.95;;;12.40;99.90;;;;;;2073057;28;20022;-67
2021/07/07 03:58:30;;;;;;;22.13;6.33;;;12.40;99.90;;;;;;2080797;28;20028;-67
2021/07/07 03:59:31;;;;;;;19.70;5.80;;;12.40;99.90;;;;;;2080682;28;20267;-67
2021/07/07 04:00:32;;;;;;;17.55;5.75;;;12.40;99.90;;;;;;2080659;28;20025;-67
2021/07/07 04:01:33;;;;;;;22.10;5.35;;;12.40;99.90;;;;;;2071677;28;20035;-67
2021/07/07 04:02:33;;;;;;;19.05;5.60;;;12.40;99.90;;;;;;2078987;28;20026;-68
2021/07/07 04:03:34;;;;;;;19.38;6.20;;;12.40;99.90;;;;;;2088447;28;20021;-68
2021/07/07 04:04:36;;;;;;;15.15;5.28;;;12.40;99.90;;;;;;2086678;28;20480;-68
2021/07/07 04:05:37;;;;;;;23.52;5.50;;;12.40;99.90;;;;;;2082416;28;20492;-68
2021/07/07 04:06:39;;;;;;;22.10;5.90;;;12.40;99.90;;;;;;2081723;28;20026;-67
2021/07/07 04:07:40;;;;;;;19.02;5.68;;;12.40;99.90;;;;;;2081906;28;20032;-68
2021/07/07 04:08:41;;;;;;;22.17;5.45;;;12.40;99.90;;;;;;2081936;28;20038;-67
2021/07/07 04:09:42;;;;;;;19.10;5.28;;;12.40;99.90;;;;;;2073571;28;20034;-67
2021/07/07 04:10:43;;;;;;;20.88;5.45;;;12.40;99.90;;;;;;2080790;28;20030;-66
2021/07/07 04:11:43;;;;;;;26.33;5.70;;;12.40;99.90;;;;;;2080980;28;20021;-67
2021/07/07 04:12:46;;;;;;;23.55;5.28;;;12.40;99.90;;;;;;2073653;28;20032;-67
2021/07/07 04:13:46;;;;;;;22.75;5.70;;;12.40;99.90;;;;;;2082807;28;20100;-70
2021/07/07 04:14:47;;;;;;;20.85;5.68;;;12.40;99.90;;;;;;2076061;28;20049;-68
2021/07/07 04:15:47;;;;;;;16.73;4.80;;;12.40;99.90;;;;;;2078563;28;20021;-70
2021/07/07 04:16:52;;;;;;;17.90;5.35;;;12.40;99.90;;;;;;2082234;28;20029;-68
2021/07/07 04:17:53;;;;;;;17.70;5.13;;;12.40;99.90;;;;;;2082527;28;20021;-68
2021/07/07 04:18:53;;;;;;;26.70;6.18;;;12.40;99.90;;;;;;2082358;28;20097;-68
2021/07/07 04:19:54;;;;;;;17.50;4.85;;;12.40;99.90;;;;;;2081635;28;20134;-68
2021/07/07 04:20:55;;;;;;;26.65;6.13;;;12.40;99.90;;;;;;2081225;28;20041;-68
2021/07/07 04:21:56;;;;;;;17.02;4.97;;;12.40;99.90;;;;;;2081007;28;20495;-67
2021/07/07 04:22:56;;;;;;;23.48;5.50;;;12.40;99.90;;;;;;2081709;28;20028;-68
2021/07/07 04:23:57;;;;;;;22.27;5.22;;;12.40;99.90;;;;;;2081907;28;20045;-68
2021/07/07 04:24:58;;;;;;;25.00;5.38;;;12.40;99.90;;;;;;2078562;28;20056;-68
2021/07/07 04:25:58;;;;;;;18.83;5.60;;;12.40;99.90;;;;;;2083999;28;20017;-68
2021/07/07 04:26:59;;;;;;;16.95;5.18;;;12.50;99.90;;;;;;2082195;28;20025;-68
2021/07/07 04:28:00;;;;;;;18.65;5.45;;;12.40;99.90;;;;;;2081592;28;20025;-68
2021/07/07 04:29:00;;;;;;;26.73;5.00;;;12.40;99.90;;;;;;2081379;28;20147;-68
2021/07/07 04:30:03;;;;;;;16.83;5.60;;;12.40;99.90;;;;;;2080471;28;20018;-68
2021/07/07 04:31:04;;;;;;;17.27;5.25;;;12.40;99.90;;;;;;2080976;28;20175;-67
2021/07/07 04:32:05;;;;;;;20.88;5.55;;;12.40;99.90;;;;;;2081734;28;20048;-69
2021/07/07 04:33:05;;;;;;;17.97;5.23;;;12.40;99.90;;;;;;2081692;28;20493;-69
2021/07/07 04:34:07;;;;;;;19.60;5.22;;;12.40;99.90;;;;;;2078465;28;20280;-67
2021/07/07 04:35:09;;;;;;;22.02;6.07;;;12.40;99.90;;;;;;2080444;28;20627;-67
2021/07/07 04:36:10;;;;;;;22.90;5.43;;;12.40;99.90;;;;;;2080820;28;20124;-68
2021/07/07 04:37:11;;;;;;;18.95;5.50;;;12.40;99.90;;;;;;2081692;28;20034;-67
2021/07/07 04:38:12;;;;;;;20.27;5.47;;;12.40;99.90;;;;;;2081133;28;20649;-67
2021/07/07 04:39:13;;;;;;;17.90;5.78;;;12.40;99.90;;;;;;2078314;28;20034;-68
2021/07/07 04:40:14;;;;;;;22.83;5.43;;;12.40;99.90;;;;;;2080823;28;20112;-67
2021/07/07 04:41:15;;;;;;;14.63;5.40;;;12.50;99.90;;;;;;2080805;28;20072;-68
2021/07/07 04:42:16;;;;;;;17.05;5.22;;;12.50;99.90;;;;;;2081408;28;20088;-68
2021/07/07 04:43:17;;;;;;;11.52;5.00;;;12.50;99.90;;;;;;2080879;28;20049;-68
2021/07/07 04:44:18;;;;;;;14.65;5.28;;;12.50;99.90;;;;;;2080903;28;20041;-68
2021/07/07 04:45:19;;;;;;;21.67;5.93;;;12.50;99.90;;;;;;2079064;28;20026;-67
2021/07/07 04:46:20;;;;;;;16.15;5.22;;;12.50;99.90;;;;;;2075102;28;20029;-68
2021/07/07 04:47:21;;;;;;;17.45;6.40;;;12.60;99.90;;;;;;2087459;28;20520;-67
2021/07/07 04:48:21;;;;;;;14.50;5.10;;;12.70;99.90;;;;;;2081739;28;20017;-68
2021/07/07 04:49:22;;;;;;;21.20;5.57;;;12.70;99.90;;;;;;2081547;28;20532;-68
2021/07/07 04:50:23;;;;;;;16.13;4.80;;;12.70;99.90;;;;;;2081723;28;20014;-68
2021/07/07 04:51:24;;;;;;;23.70;5.13;;;12.70;99.90;;;;;;2081533;28;20021;-68
2021/07/07 04:52:24;;;;;;;29.38;5.55;;;12.70;99.90;;;;;;2080849;28;20033;-68
2021/07/07 04:53:25;;;;;;;17.10;5.32;;;12.80;99.90;;;;;;2080947;28;20415;-68
2021/07/07 04:54:26;;;;;;;18.98;5.22;;;12.90;99.90;;;;;;2075179;28;20045;-67
2021/07/07 04:55:26;;;;;;;32.90;5.75;;;13.10;99.90;;;;;;2079670;28;20093;-69
2021/07/07 04:56:27;;;;;;;24.83;5.40;;;13.30;99.90;;;;;;2080584;28;20084;-68
2021/07/07 04:57:28;;;;;;;25.58;5.07;;;13.60;99.90;;;;;;2080786;28;20025;-68
2021/07/07 04:58:28;;;;;;;22.10;5.30;;;13.80;99.90;;;;;;2081437;28;20535;-67
2021/07/07 04:59:29;;;;;;;20.80;5.38;;;14.20;99.90;;;;;;2081368;28;20481;-67
2021/07/07 05:00:31;;;;;;;15.82;4.20;;;14.60;99.90;;;;;;2081586;28;20059;-67
2021/07/07 05:01:32;;;;;;;;;;;15.00;99.90;;;;;;2081766;28;20467;-68
2021/07/07 05:02:32;;;;;;;11.82;3.70;;;15.30;99.90;;;;;;2082083;28;20007;-68
2021/07/07 05:03:33;;;;;;;11.75;3.85;;;15.70;99.90;;;;;;2079316;28;20482;-68
2021/07/07 05:04:34;;;;;;;17.33;3.92;;;16.10;99.90;;;;;;2080878;28;20556;-67
2021/07/07 05:05:35;;;;;;;18.58;3.72;;;16.40;99.90;;;;;;2081197;28;20397;-67
2021/07/07 05:06:35;;;;;;;14.60;3.38;;;16.60;99.90;;;;;;2080578;28;20069;-67
2021/07/07 05:07:36;;;;;;;7.15;3.00;;;16.70;99.90;;;;;;2078099;28;20057;-67
2021/07/07 05:08:37;;;;;;;12.10;2.85;;;17.00;99.90;;;;;;2081115;28;20029;-67
2021/07/07 05:09:37;;;;;;;10.98;3.20;;;17.40;99.90;;;;;;2081034;28;20388;-68
2021/07/07 05:10:39;;;;;;;15.00;3.80;;;17.60;99.90;;;;;;2081513;28;20158;-67
2021/07/07 05:11:40;;;;;;;18.13;2.83;;;17.80;99.90;;;;;;2080642;28;20033;-67
2021/07/07 05:12:42;;;;;;;14.80;3.28;;;18.00;99.90;;;;;;2080769;28;20195;-67
2021/07/07 05:13:43;;;;;;;12.10;3.45;;;18.30;99.90;;;;;;2078819;28;20033;-68
2021/07/07 05:14:43;;;;;;;17.15;3.13;;;18.50;99.90;;;;;;2081257;28;20032;-67